sensor_id;sensor_type;location;lat;lon;timestamp;temperature;humidity
12588;DHT22;6359;51.450;7.346;2023-05-10T00:02:09;13.10;99.90
12588;DHT22;6359;51.450;7.346;2023-05-10T00:04:36;13.10;99.90
12588;DHT22;6359;51.450;7.346;2023-05-10T00:07:03;13.10;99.90
12588;DHT22;6359;51.450;7.346;2023-05-10T00:09:31;13.10;99.90
12588;DHT22;6359;51.450;7.346;2023-05-10T00:11:58;13.10;99.90
12588;DHT22;6359;51.450;7.346;2023-05-10T00:14:25;13.00;99.90
12588;DHT22;6359;51.450;7.346;2023-05-10T00:16:52;13.00;99.90
12588;DHT22;6359;51.450;7.346;2023-05-10T00:19:19;13.00;99.90
12588;DHT22;6359;51.450;7.346;2023-05-10T00:21:46;13.10;99.90
12588;DHT22;6359;51.450;7.346;2023-05-10T00:24:13;13.10;99.90
12588;DHT22;6359;51.450;7.346;2023-05-10T00:26:42;13.10;99.90
12588;DHT22;6359;51.450;7.346;2023-05-10T00:29:09;13.10;99.90
12588;DHT22;6359;51.450;7.346;2023-05-10T00:31:35;13.00;99.90
12588;DHT22;6359;51.450;7.346;2023-05-10T00:34:03;13.00;99.90
12588;DHT22;6359;51.450;7.346;2023-05-10T00:36:30;13.00;99.90
12588;DHT22;6359;51.450;7.346;2023-05-10T00:38:58;13.00;99.90
12588;DHT22;6359;51.450;7.346;2023-05-10T00:41:25;13.00;99.90
12588;DHT22;6359;51.450;7.346;2023-05-10T00:43:53;13.00;99.90
12588;DHT22;6359;51.450;7.346;2023-05-10T00:46:20;13.00;99.90
12588;DHT22;6359;51.450;7.346;2023-05-10T00:48:48;13.00;99.90
12588;DHT22;6359;51.450;7.346;2023-05-10T00:51:15;13.00;99.90
12588;DHT22;6359;51.450;7.346;2023-05-10T00:53:43;12.90;99.90
12588;DHT22;6359;51.450;7.346;2023-05-10T00:56:12;13.00;99.90
12588;DHT22;6359;51.450;7.346;2023-05-10T00:58:39;13.00;99.90
12588;DHT22;6359;51.450;7.346;2023-05-10T01:01:08;13.00;99.90
12588;DHT22;6359;51.450;7.346;2023-05-10T01:03:36;13.00;99.90
12588;DHT22;6359;51.450;7.346;2023-05-10T01:06:04;13.00;99.90
12588;DHT22;6359;51.450;7.346;2023-05-10T01:08:31;13.00;99.90
12588;DHT22;6359;51.450;7.346;2023-05-10T01:10:58;13.00;99.90
12588;DHT22;6359;51.450;7.346;2023-05-10T01:13:32;13.00;99.90
12588;DHT22;6359;51.450;7.346;2023-05-10T01:16:00;13.00;99.90
12588;DHT22;6359;51.450;7.346;2023-05-10T01:18:29;13.00;99.90
12588;DHT22;6359;51.450;7.346;2023-05-10T01:21:04;13.10;99.90
12588;DHT22;6359;51.450;7.346;2023-05-10T01:29:59;13.00;99.90
12588;DHT22;6359;51.450;7.346;2023-05-10T01:32:35;13.00;99.90
12588;DHT22;6359;51.450;7.346;2023-05-10T01:35:06;13.00;99.90
12588;DHT22;6359;51.450;7.346;2023-05-10T01:37:41;13.10;99.90
12588;DHT22;6359;51.450;7.346;2023-05-10T01:40:16;13.00;99.90
12588;DHT22;6359;51.450;7.346;2023-05-10T01:42:50;13.10;99.90
12588;DHT22;6359;51.450;7.346;2023-05-10T01:45:22;13.00;99.90
12588;DHT22;6359;51.450;7.346;2023-05-10T01:47:58;13.10;99.90
12588;DHT22;6359;51.450;7.346;2023-05-10T01:50:30;13.00;99.90
12588;DHT22;6359;51.450;7.346;2023-05-10T01:52:59;13.00;99.90
12588;DHT22;6359;51.450;7.346;2023-05-10T01:55:29;13.00;99.90
12588;DHT22;6359;51.450;7.346;2023-05-10T01:58:02;13.10;99.90
12588;DHT22;6359;51.450;7.346;2023-05-10T02:00:30;13.00;99.90
12588;DHT22;6359;51.450;7.346;2023-05-10T02:03:00;13.00;99.90
12588;DHT22;6359;51.450;7.346;2023-05-10T02:05:30;12.90;99.90
12588;DHT22;6359;51.450;7.346;2023-05-10T02:07:59;12.90;99.90
12588;DHT22;6359;51.450;7.346;2023-05-10T02:10:28;12.90;99.90
12588;DHT22;6359;51.450;7.346;2023-05-10T02:12:58;12.90;99.90
12588;DHT22;6359;51.450;7.346;2023-05-10T02:15:26;12.90;99.90
12588;DHT22;6359;51.450;7.346;2023-05-10T02:17:55;12.90;99.90
12588;DHT22;6359;51.450;7.346;2023-05-10T02:20:25;12.90;99.90
12588;DHT22;6359;51.450;7.346;2023-05-10T02:22:54;13.00;99.90
12588;DHT22;6359;51.450;7.346;2023-05-10T02:25:23;12.90;99.90
12588;DHT22;6359;51.450;7.346;2023-05-10T02:27:53;12.90;99.90
12588;DHT22;6359;51.450;7.346;2023-05-10T02:30:22;12.90;99.90
12588;DHT22;6359;51.450;7.346;2023-05-10T02:32:49;12.80;99.90
12588;DHT22;6359;51.450;7.346;2023-05-10T02:35:17;12.80;99.90
12588;DHT22;6359;51.450;7.346;2023-05-10T02:37:46;12.80;99.90
12588;DHT22;6359;51.450;7.346;2023-05-10T02:40:15;12.80;99.90
12588;DHT22;6359;51.450;7.346;2023-05-10T02:42:44;12.70;99.90
12588;DHT22;6359;51.450;7.346;2023-05-10T02:45:14;12.70;99.90
12588;DHT22;6359;51.450;7.346;2023-05-10T02:47:43;12.70;99.90
12588;DHT22;6359;51.450;7.346;2023-05-10T02:50:10;12.70;99.90
12588;DHT22;6359;51.450;7.346;2023-05-10T02:52:40;12.70;99.90
12588;DHT22;6359;51.450;7.346;2023-05-10T02:55:11;12.70;99.90
12588;DHT22;6359;51.450;7.346;2023-05-10T02:57:43;12.70;99.90
12588;DHT22;6359;51.450;7.346;2023-05-10T03:00:13;12.70;99.90
12588;DHT22;6359;51.450;7.346;2023-05-10T03:02:40;12.70;99.90
12588;DHT22;6359;51.450;7.346;2023-05-10T03:05:07;12.70;99.90
12588;DHT22;6359;51.450;7.346;2023-05-10T03:07:34;12.70;99.90
12588;DHT22;6359;51.450;7.346;2023-05-10T03:10:02;12.80;99.90
12588;DHT22;6359;51.450;7.346;2023-05-10T03:12:41;12.60;99.90
12588;DHT22;6359;51.450;7.346;2023-05-10T03:15:16;12.60;99.90
12588;DHT22;6359;51.450;7.346;2023-05-10T03:17:47;12.60;99.90
12588;DHT22;6359;51.450;7.346;2023-05-10T03:20:22;12.40;99.90
12588;DHT22;6359;51.450;7.346;2023-05-10T03:22:55;12.50;99.90
12588;DHT22;6359;51.450;7.346;2023-05-10T03:25:23;12.40;99.90
12588;DHT22;6359;51.450;7.346;2023-05-10T03:27:52;12.40;99.90
12588;DHT22;6359;51.450;7.346;2023-05-10T03:30:20;12.40;99.90
12588;DHT22;6359;51.450;7.346;2023-05-10T03:32:47;12.30;99.90
12588;DHT22;6359;51.450;7.346;2023-05-10T03:35:14;12.40;99.90
12588;DHT22;6359;51.450;7.346;2023-05-10T03:37:41;12.20;99.90
12588;DHT22;6359;51.450;7.346;2023-05-10T03:40:08;12.20;99.90
12588;DHT22;6359;51.450;7.346;2023-05-10T03:42:35;12.20;99.90
12588;DHT22;6359;51.450;7.346;2023-05-10T03:45:04;12.20;99.90
12588;DHT22;6359;51.450;7.346;2023-05-10T03:47:31;12.20;99.90
12588;DHT22;6359;51.450;7.346;2023-05-10T03:49:58;12.20;99.90
12588;DHT22;6359;51.450;7.346;2023-05-10T03:52:25;12.20;99.90
12588;DHT22;6359;51.450;7.346;2023-05-10T03:54:51;12.30;99.90
12588;DHT22;6359;51.450;7.346;2023-05-10T03:57:18;12.30;99.90
12588;DHT22;6359;51.450;7.346;2023-05-10T03:59:45;12.40;99.90
12588;DHT22;6359;51.450;7.346;2023-05-10T04:02:13;12.20;99.90
12588;DHT22;6359;51.450;7.346;2023-05-10T04:04:40;12.40;99.90
12588;DHT22;6359;51.450;7.346;2023-05-10T04:07:07;12.30;99.90
12588;DHT22;6359;51.450;7.346;2023-05-10T04:09:35;12.30;99.90
12588;DHT22;6359;51.450;7.346;2023-05-10T04:12:03;12.30;99.90
12588;DHT22;6359;51.450;7.346;2023-05-10T04:14:30;12.30;99.90
12588;DHT22;6359;51.450;7.346;2023-05-10T04:16:57;12.30;99.90
12588;DHT22;6359;51.450;7.346;2023-05-10T04:19:29;12.30;99.90
12588;DHT22;6359;51.450;7.346;2023-05-10T04:21:56;12.30;99.90
12588;DHT22;6359;51.450;7.346;2023-05-10T04:24:23;12.30;99.90
12588;DHT22;6359;51.450;7.346;2023-05-10T04:26:50;12.30;99.90
12588;DHT22;6359;51.450;7.346;2023-05-10T04:29:17;12.30;99.90
12588;DHT22;6359;51.450;7.346;2023-05-10T04:31:44;12.30;99.90
12588;DHT22;6359;51.450;7.346;2023-05-10T04:34:11;12.30;99.90
12588;DHT22;6359;51.450;7.346;2023-05-10T04:36:39;12.30;99.90
12588;DHT22;6359;51.450;7.346;2023-05-10T04:39:06;12.30;99.90
12588;DHT22;6359;51.450;7.346;2023-05-10T04:41:35;12.30;99.90
12588;DHT22;6359;51.450;7.346;2023-05-10T04:44:02;12.30;99.90
12588;DHT22;6359;51.450;7.346;2023-05-10T04:46:29;12.30;99.90
12588;DHT22;6359;51.450;7.346;2023-05-10T04:48:56;12.30;99.90
12588;DHT22;6359;51.450;7.346;2023-05-10T04:51:23;12.40;99.90
12588;DHT22;6359;51.450;7.346;2023-05-10T04:53:51;12.40;99.90
12588;DHT22;6359;51.450;7.346;2023-05-10T04:56:18;12.40;99.90
12588;DHT22;6359;51.450;7.346;2023-05-10T04:58:45;12.50;99.90
12588;DHT22;6359;51.450;7.346;2023-05-10T05:01:12;12.50;99.90
12588;DHT22;6359;51.450;7.346;2023-05-10T05:03:39;12.50;99.90
12588;DHT22;6359;51.450;7.346;2023-05-10T05:06:06;12.50;99.90
12588;DHT22;6359;51.450;7.346;2023-05-10T05:08:33;12.50;99.90
12588;DHT22;6359;51.450;7.346;2023-05-10T05:11:02;12.50;99.90
12588;DHT22;6359;51.450;7.346;2023-05-10T05:13:29;12.50;99.90
12588;DHT22;6359;51.450;7.346;2023-05-10T05:15:56;12.50;99.90
12588;DHT22;6359;51.450;7.346;2023-05-10T05:18:23;12.50;99.90
12588;DHT22;6359;51.450;7.346;2023-05-10T05:20:49;12.50;99.90
12588;DHT22;6359;51.450;7.346;2023-05-10T05:23:16;12.60;99.90
12588;DHT22;6359;51.450;7.346;2023-05-10T05:25:44;12.70;99.90
12588;DHT22;6359;51.450;7.346;2023-05-10T05:28:12;12.70;99.90
12588;DHT22;6359;51.450;7.346;2023-05-10T05:30:39;12.60;99.90
12588;DHT22;6359;51.450;7.346;2023-05-10T05:33:07;12.70;99.90
12588;DHT22;6359;51.450;7.346;2023-05-10T05:35:34;12.80;99.90
12588;DHT22;6359;51.450;7.346;2023-05-10T05:38:00;12.80;99.90
12588;DHT22;6359;51.450;7.346;2023-05-10T05:40:27;12.80;99.90
12588;DHT22;6359;51.450;7.346;2023-05-10T05:42:54;12.80;99.90
12588;DHT22;6359;51.450;7.346;2023-05-10T05:45:23;12.90;99.90
12588;DHT22;6359;51.450;7.346;2023-05-10T05:47:50;13.00;99.90
12588;DHT22;6359;51.450;7.346;2023-05-10T05:50:17;13.10;99.90
12588;DHT22;6359;51.450;7.346;2023-05-10T05:52:44;13.20;99.90
12588;DHT22;6359;51.450;7.346;2023-05-10T05:55:11;13.20;99.90
12588;DHT22;6359;51.450;7.346;2023-05-10T05:57:38;13.40;99.90
12588;DHT22;6359;51.450;7.346;2023-05-10T06:00:06;13.60;99.90
12588;DHT22;6359;51.450;7.346;2023-05-10T06:02:35;13.60;99.90
12588;DHT22;6359;51.450;7.346;2023-05-10T06:05:02;13.70;99.90
12588;DHT22;6359;51.450;7.346;2023-05-10T06:07:29;13.80;99.90
12588;DHT22;6359;51.450;7.346;2023-05-10T06:09:56;13.90;99.90
12588;DHT22;6359;51.450;7.346;2023-05-10T06:12:23;13.80;99.90
12588;DHT22;6359;51.450;7.346;2023-05-10T06:14:50;13.80;99.90
12588;DHT22;6359;51.450;7.346;2023-05-10T06:17:17;13.90;99.90
12588;DHT22;6359;51.450;7.346;2023-05-10T06:19:46;13.90;99.90
12588;DHT22;6359;51.450;7.346;2023-05-10T06:22:13;13.90;99.90
12588;DHT22;6359;51.450;7.346;2023-05-10T06:24:40;13.90;99.90
12588;DHT22;6359;51.450;7.346;2023-05-10T06:27:07;13.90;99.90
12588;DHT22;6359;51.450;7.346;2023-05-10T06:29:34;13.80;99.90
12588;DHT22;6359;51.450;7.346;2023-05-10T06:32:00;13.90;99.90
12588;DHT22;6359;51.450;7.346;2023-05-10T06:34:28;14.00;99.90
12588;DHT22;6359;51.450;7.346;2023-05-10T06:36:56;14.00;99.90
12588;DHT22;6359;51.450;7.346;2023-05-10T06:39:23;14.10;99.90
12588;DHT22;6359;51.450;7.346;2023-05-10T06:41:50;14.20;99.90
12588;DHT22;6359;51.450;7.346;2023-05-10T06:44:17;14.30;99.90
12588;DHT22;6359;51.450;7.346;2023-05-10T06:46:44;14.30;99.90
12588;DHT22;6359;51.450;7.346;2023-05-10T06:49:11;14.40;99.90
12588;DHT22;6359;51.450;7.346;2023-05-10T06:51:38;14.50;99.90
12588;DHT22;6359;51.450;7.346;2023-05-10T06:54:07;14.50;99.90
12588;DHT22;6359;51.450;7.346;2023-05-10T06:56:34;14.50;99.90
12588;DHT22;6359;51.450;7.346;2023-05-10T06:59:00;14.60;99.90
12588;DHT22;6359;51.450;7.346;2023-05-10T07:01:28;14.70;99.90
12588;DHT22;6359;51.450;7.346;2023-05-10T07:03:55;14.80;99.90
12588;DHT22;6359;51.450;7.346;2023-05-10T07:06:22;15.20;99.90
12588;DHT22;6359;51.450;7.346;2023-05-10T07:08:48;15.40;99.90
12588;DHT22;6359;51.450;7.346;2023-05-10T07:11:17;15.50;99.90
12588;DHT22;6359;51.450;7.346;2023-05-10T07:13:44;15.80;99.90
12588;DHT22;6359;51.450;7.346;2023-05-10T07:16:12;16.20;99.90
12588;DHT22;6359;51.450;7.346;2023-05-10T07:18:38;16.20;99.90
12588;DHT22;6359;51.450;7.346;2023-05-10T07:21:05;16.10;99.90
12588;DHT22;6359;51.450;7.346;2023-05-10T07:23:32;16.00;99.90
12588;DHT22;6359;51.450;7.346;2023-05-10T07:25:59;15.80;99.90
12588;DHT22;6359;51.450;7.346;2023-05-10T07:28:29;16.20;99.90
12588;DHT22;6359;51.450;7.346;2023-05-10T07:30:56;16.30;99.90
12588;DHT22;6359;51.450;7.346;2023-05-10T07:33:23;16.40;99.90
12588;DHT22;6359;51.450;7.346;2023-05-10T07:35:50;17.20;99.90
12588;DHT22;6359;51.450;7.346;2023-05-10T07:38:17;17.80;99.90
12588;DHT22;6359;51.450;7.346;2023-05-10T07:40:44;18.00;99.90
12588;DHT22;6359;51.450;7.346;2023-05-10T07:43:11;17.80;99.90
12588;DHT22;6359;51.450;7.346;2023-05-10T07:45:39;17.80;99.90
12588;DHT22;6359;51.450;7.346;2023-05-10T07:48:06;17.70;99.90
12588;DHT22;6359;51.450;7.346;2023-05-10T07:50:33;17.80;99.90
12588;DHT22;6359;51.450;7.346;2023-05-10T07:53:00;18.00;99.90
12588;DHT22;6359;51.450;7.346;2023-05-10T07:55:27;17.70;99.90
12588;DHT22;6359;51.450;7.346;2023-05-10T07:57:54;17.60;99.90
12588;DHT22;6359;51.450;7.346;2023-05-10T08:00:21;18.10;99.90
12588;DHT22;6359;51.450;7.346;2023-05-10T08:02:50;18.70;99.90
12588;DHT22;6359;51.450;7.346;2023-05-10T08:05:17;20.50;99.90
12588;DHT22;6359;51.450;7.346;2023-05-10T08:07:44;21.70;99.90
12588;DHT22;6359;51.450;7.346;2023-05-10T08:10:11;20.90;99.90
12588;DHT22;6359;51.450;7.346;2023-05-10T08:12:38;19.70;99.90
12588;DHT22;6359;51.450;7.346;2023-05-10T08:15:06;19.10;99.90
12588;DHT22;6359;51.450;7.346;2023-05-10T08:17:33;18.60;99.90
12588;DHT22;6359;51.450;7.346;2023-05-10T08:20:01;18.10;99.90
12588;DHT22;6359;51.450;7.346;2023-05-10T08:22:28;17.80;99.90
12588;DHT22;6359;51.450;7.346;2023-05-10T08:24:55;17.60;99.90
12588;DHT22;6359;51.450;7.346;2023-05-10T08:27:22;17.70;99.90
12588;DHT22;6359;51.450;7.346;2023-05-10T08:29:49;18.00;99.90
12588;DHT22;6359;51.450;7.346;2023-05-10T08:32:15;18.10;99.90
12588;DHT22;6359;51.450;7.346;2023-05-10T08:34:42;17.60;99.90
12588;DHT22;6359;51.450;7.346;2023-05-10T08:37:11;17.20;99.90
12588;DHT22;6359;51.450;7.346;2023-05-10T08:39:38;16.90;99.90
12588;DHT22;6359;51.450;7.346;2023-05-10T08:42:06;16.60;99.90
12588;DHT22;6359;51.450;7.346;2023-05-10T08:44:35;16.50;99.90
12588;DHT22;6359;51.450;7.346;2023-05-10T08:47:04;16.30;99.90
12588;DHT22;6359;51.450;7.346;2023-05-10T08:49:32;16.40;99.90
12588;DHT22;6359;51.450;7.346;2023-05-10T08:52:02;16.70;99.90
12588;DHT22;6359;51.450;7.346;2023-05-10T08:54:32;17.20;99.90
12588;DHT22;6359;51.450;7.346;2023-05-10T08:57:00;17.90;99.90
12588;DHT22;6359;51.450;7.346;2023-05-10T08:59:27;18.20;99.90
12588;DHT22;6359;51.450;7.346;2023-05-10T09:01:57;18.30;99.90
12588;DHT22;6359;51.450;7.346;2023-05-10T09:04:24;18.30;99.90
12588;DHT22;6359;51.450;7.346;2023-05-10T09:06:51;18.60;99.90
12588;DHT22;6359;51.450;7.346;2023-05-10T09:09:19;19.30;99.90
12588;DHT22;6359;51.450;7.346;2023-05-10T09:11:48;20.10;99.90
12588;DHT22;6359;51.450;7.346;2023-05-10T09:14:15;21.30;99.90
12588;DHT22;6359;51.450;7.346;2023-05-10T09:16:43;22.00;99.90
12588;DHT22;6359;51.450;7.346;2023-05-10T09:19:10;21.80;99.90
12588;DHT22;6359;51.450;7.346;2023-05-10T09:21:37;21.00;99.90
12588;DHT22;6359;51.450;7.346;2023-05-10T09:24:05;20.70;99.90
12588;DHT22;6359;51.450;7.346;2023-05-10T09:26:32;20.30;99.90
12588;DHT22;6359;51.450;7.346;2023-05-10T09:29:03;20.30;99.90
12588;DHT22;6359;51.450;7.346;2023-05-10T09:31:46;20.30;99.90
12588;DHT22;6359;51.450;7.346;2023-05-10T09:34:16;19.70;99.90
12588;DHT22;6359;51.450;7.346;2023-05-10T09:36:54;19.70;99.90
12588;DHT22;6359;51.450;7.346;2023-05-10T09:39:30;20.10;99.90
12588;DHT22;6359;51.450;7.346;2023-05-10T09:41:58;20.30;99.90
12588;DHT22;6359;51.450;7.346;2023-05-10T09:44:27;20.50;99.90
12588;DHT22;6359;51.450;7.346;2023-05-10T09:46:53;20.50;99.90
12588;DHT22;6359;51.450;7.346;2023-05-10T09:49:21;20.30;99.90
12588;DHT22;6359;51.450;7.346;2023-05-10T09:51:54;20.00;99.90
12588;DHT22;6359;51.450;7.346;2023-05-10T09:54:24;19.80;99.90
12588;DHT22;6359;51.450;7.346;2023-05-10T09:56:51;20.00;99.90
12588;DHT22;6359;51.450;7.346;2023-05-10T09:59:18;19.90;99.90
12588;DHT22;6359;51.450;7.346;2023-05-10T10:01:51;19.70;99.90
12588;DHT22;6359;51.450;7.346;2023-05-10T10:04:20;20.10;99.90
12588;DHT22;6359;51.450;7.346;2023-05-10T10:06:47;20.00;99.90
12588;DHT22;6359;51.450;7.346;2023-05-10T10:09:25;19.80;99.90
12588;DHT22;6359;51.450;7.346;2023-05-10T10:11:52;19.70;99.90
12588;DHT22;6359;51.450;7.346;2023-05-10T10:14:21;19.80;99.90
12588;DHT22;6359;51.450;7.346;2023-05-10T10:16:51;19.70;99.90
12588;DHT22;6359;51.450;7.346;2023-05-10T10:19:18;19.50;99.90
12588;DHT22;6359;51.450;7.346;2023-05-10T10:21:47;19.40;99.90
12588;DHT22;6359;51.450;7.346;2023-05-10T10:24:14;19.40;99.90
12588;DHT22;6359;51.450;7.346;2023-05-10T10:26:42;19.50;99.90
12588;DHT22;6359;51.450;7.346;2023-05-10T10:29:18;19.50;99.90
12588;DHT22;6359;51.450;7.346;2023-05-10T10:31:55;19.80;99.90
12588;DHT22;6359;51.450;7.346;2023-05-10T10:34:26;19.90;99.90
12588;DHT22;6359;51.450;7.346;2023-05-10T10:36:55;19.60;99.90
12588;DHT22;6359;51.450;7.346;2023-05-10T10:39:24;19.50;99.90
12588;DHT22;6359;51.450;7.346;2023-05-10T10:41:52;19.10;99.90
12588;DHT22;6359;51.450;7.346;2023-05-10T10:44:34;18.70;99.90
12588;DHT22;6359;51.450;7.346;2023-05-10T10:47:05;18.50;99.90
12588;DHT22;6359;51.450;7.346;2023-05-10T10:49:42;18.40;99.90
12588;DHT22;6359;51.450;7.346;2023-05-10T10:52:23;18.30;99.90
12588;DHT22;6359;51.450;7.346;2023-05-10T10:54:58;18.30;99.90
12588;DHT22;6359;51.450;7.346;2023-05-10T10:57:26;18.50;99.90
12588;DHT22;6359;51.450;7.346;2023-05-10T11:00:20;19.10;99.90
12588;DHT22;6359;51.450;7.346;2023-05-10T11:02:50;19.30;99.90
12588;DHT22;6359;51.450;7.346;2023-05-10T11:08:15;19.00;99.90
12588;DHT22;6359;51.450;7.346;2023-05-10T11:10:51;19.40;99.90
12588;DHT22;6359;51.450;7.346;2023-05-10T11:13:28;19.50;99.90
12588;DHT22;6359;51.450;7.346;2023-05-10T11:15:56;19.60;99.90
12588;DHT22;6359;51.450;7.346;2023-05-10T11:18:28;19.30;99.90
12588;DHT22;6359;51.450;7.346;2023-05-10T11:20:59;18.60;99.90
12588;DHT22;6359;51.450;7.346;2023-05-10T11:23:32;18.30;99.90
12588;DHT22;6359;51.450;7.346;2023-05-10T11:25:59;18.20;99.90
12588;DHT22;6359;51.450;7.346;2023-05-10T11:28:27;18.00;99.90
12588;DHT22;6359;51.450;7.346;2023-05-10T11:30:54;17.80;99.90
12588;DHT22;6359;51.450;7.346;2023-05-10T11:33:21;17.90;99.90
12588;DHT22;6359;51.450;7.346;2023-05-10T11:35:49;18.00;99.90
12588;DHT22;6359;51.450;7.346;2023-05-10T11:38:16;18.20;99.90
12588;DHT22;6359;51.450;7.346;2023-05-10T11:40:43;18.40;99.90
12588;DHT22;6359;51.450;7.346;2023-05-10T11:43:10;18.60;99.90
12588;DHT22;6359;51.450;7.346;2023-05-10T11:45:39;18.90;99.90
12588;DHT22;6359;51.450;7.346;2023-05-10T11:48:06;18.80;99.90
12588;DHT22;6359;51.450;7.346;2023-05-10T11:50:34;18.60;99.90
12588;DHT22;6359;51.450;7.346;2023-05-10T11:53:02;18.30;99.90
12588;DHT22;6359;51.450;7.346;2023-05-10T11:55:29;18.10;99.90
12588;DHT22;6359;51.450;7.346;2023-05-10T11:58:01;18.40;99.90
12588;DHT22;6359;51.450;7.346;2023-05-10T12:00:29;18.70;99.90
12588;DHT22;6359;51.450;7.346;2023-05-10T12:02:57;18.60;99.90
12588;DHT22;6359;51.450;7.346;2023-05-10T12:05:24;18.40;99.90
12588;DHT22;6359;51.450;7.346;2023-05-10T12:07:51;18.60;99.90
12588;DHT22;6359;51.450;7.346;2023-05-10T12:10:25;18.60;99.90
12588;DHT22;6359;51.450;7.346;2023-05-10T12:12:53;18.60;99.90
12588;DHT22;6359;51.450;7.346;2023-05-10T12:15:21;18.40;99.90
12588;DHT22;6359;51.450;7.346;2023-05-10T12:17:48;18.80;99.90
12588;DHT22;6359;51.450;7.346;2023-05-10T12:20:16;19.50;99.90
12588;DHT22;6359;51.450;7.346;2023-05-10T12:22:45;20.00;99.90
12588;DHT22;6359;51.450;7.346;2023-05-10T12:25:12;19.80;99.90
12588;DHT22;6359;51.450;7.346;2023-05-10T12:27:46;19.00;99.90
12588;DHT22;6359;51.450;7.346;2023-05-10T12:30:19;18.80;99.90
12588;DHT22;6359;51.450;7.346;2023-05-10T12:32:46;18.30;99.90
12588;DHT22;6359;51.450;7.346;2023-05-10T12:35:13;17.80;99.90
12588;DHT22;6359;51.450;7.346;2023-05-10T12:37:41;17.80;99.90
12588;DHT22;6359;51.450;7.346;2023-05-10T12:40:09;17.80;99.90
12588;DHT22;6359;51.450;7.346;2023-05-10T12:42:38;17.80;99.90
12588;DHT22;6359;51.450;7.346;2023-05-10T12:45:08;17.80;99.90
12588;DHT22;6359;51.450;7.346;2023-05-10T12:47:35;18.50;99.90
12588;DHT22;6359;51.450;7.346;2023-05-10T12:50:03;18.70;99.90
12588;DHT22;6359;51.450;7.346;2023-05-10T12:52:31;18.70;99.90
12588;DHT22;6359;51.450;7.346;2023-05-10T12:54:59;18.90;99.90
12588;DHT22;6359;51.450;7.346;2023-05-10T12:57:26;19.10;99.90
12588;DHT22;6359;51.450;7.346;2023-05-10T12:59:54;19.40;99.90
12588;DHT22;6359;51.450;7.346;2023-05-10T13:02:22;19.60;99.90
12588;DHT22;6359;51.450;7.346;2023-05-10T13:04:49;20.00;99.90
12588;DHT22;6359;51.450;7.346;2023-05-10T13:07:16;20.10;99.90
12588;DHT22;6359;51.450;7.346;2023-05-10T13:09:43;20.20;99.90
12588;DHT22;6359;51.450;7.346;2023-05-10T13:12:11;19.90;99.90
12588;DHT22;6359;51.450;7.346;2023-05-10T13:14:37;20.00;99.90
12588;DHT22;6359;51.450;7.346;2023-05-10T13:17:06;20.00;99.90
12588;DHT22;6359;51.450;7.346;2023-05-10T13:19:34;20.10;99.90
12588;DHT22;6359;51.450;7.346;2023-05-10T13:22:03;20.00;99.90
12588;DHT22;6359;51.450;7.346;2023-05-10T13:24:30;20.00;99.90
12588;DHT22;6359;51.450;7.346;2023-05-10T13:26:58;20.10;99.90
12588;DHT22;6359;51.450;7.346;2023-05-10T13:29:25;20.30;99.90
12588;DHT22;6359;51.450;7.346;2023-05-10T13:31:52;20.10;99.90
12588;DHT22;6359;51.450;7.346;2023-05-10T13:34:19;20.40;99.90
12588;DHT22;6359;51.450;7.346;2023-05-10T13:36:48;20.60;99.90
12588;DHT22;6359;51.450;7.346;2023-05-10T13:39:15;20.80;99.90
12588;DHT22;6359;51.450;7.346;2023-05-10T13:41:42;20.40;99.90
12588;DHT22;6359;51.450;7.346;2023-05-10T13:44:11;20.10;99.90
12588;DHT22;6359;51.450;7.346;2023-05-10T13:46:38;19.90;99.90
12588;DHT22;6359;51.450;7.346;2023-05-10T13:49:05;19.90;99.90
12588;DHT22;6359;51.450;7.346;2023-05-10T13:51:33;20.10;99.90
12588;DHT22;6359;51.450;7.346;2023-05-10T13:54:02;20.40;99.90
12588;DHT22;6359;51.450;7.346;2023-05-10T13:56:29;20.40;99.90
12588;DHT22;6359;51.450;7.346;2023-05-10T13:58:57;20.60;99.90
12588;DHT22;6359;51.450;7.346;2023-05-10T14:01:24;20.70;99.90
12588;DHT22;6359;51.450;7.346;2023-05-10T14:03:50;20.70;99.90
12588;DHT22;6359;51.450;7.346;2023-05-10T14:06:17;20.70;99.90
12588;DHT22;6359;51.450;7.346;2023-05-10T14:08:44;20.80;99.90
12588;DHT22;6359;51.450;7.346;2023-05-10T14:11:13;21.10;99.90
12588;DHT22;6359;51.450;7.346;2023-05-10T14:13:40;21.30;99.90
12588;DHT22;6359;51.450;7.346;2023-05-10T14:16:07;21.20;99.90
12588;DHT22;6359;51.450;7.346;2023-05-10T14:18:34;21.10;99.90
12588;DHT22;6359;51.450;7.346;2023-05-10T14:21:02;21.20;99.90
12588;DHT22;6359;51.450;7.346;2023-05-10T14:23:29;21.20;99.90
12588;DHT22;6359;51.450;7.346;2023-05-10T14:25:56;21.00;99.90
12588;DHT22;6359;51.450;7.346;2023-05-10T14:28:24;21.10;99.90
12588;DHT22;6359;51.450;7.346;2023-05-10T14:30:51;20.90;99.90
12588;DHT22;6359;51.450;7.346;2023-05-10T14:33:18;20.70;99.90
12588;DHT22;6359;51.450;7.346;2023-05-10T14:35:46;20.90;99.90
12588;DHT22;6359;51.450;7.346;2023-05-10T14:38:13;21.10;99.90
12588;DHT22;6359;51.450;7.346;2023-05-10T14:40:40;21.10;99.90
12588;DHT22;6359;51.450;7.346;2023-05-10T14:43:07;21.10;99.90
12588;DHT22;6359;51.450;7.346;2023-05-10T14:45:35;21.10;99.90
12588;DHT22;6359;51.450;7.346;2023-05-10T14:48:02;20.90;99.90
12588;DHT22;6359;51.450;7.346;2023-05-10T14:50:30;20.70;99.90
12588;DHT22;6359;51.450;7.346;2023-05-10T14:52:57;20.70;99.90
12588;DHT22;6359;51.450;7.346;2023-05-10T14:55:24;20.70;99.90
12588;DHT22;6359;51.450;7.346;2023-05-10T14:57:50;20.70;99.90
12588;DHT22;6359;51.450;7.346;2023-05-10T15:00:18;20.70;99.90
12588;DHT22;6359;51.450;7.346;2023-05-10T15:02:46;20.50;99.90
12588;DHT22;6359;51.450;7.346;2023-05-10T15:05:14;20.30;99.90
12588;DHT22;6359;51.450;7.346;2023-05-10T15:07:41;20.60;99.90
12588;DHT22;6359;51.450;7.346;2023-05-10T15:10:09;20.70;99.90
12588;DHT22;6359;51.450;7.346;2023-05-10T15:12:36;20.80;99.90
12588;DHT22;6359;51.450;7.346;2023-05-10T15:15:03;20.60;99.90
12588;DHT22;6359;51.450;7.346;2023-05-10T15:17:30;20.50;99.90
12588;DHT22;6359;51.450;7.346;2023-05-10T15:19:58;20.60;99.90
12588;DHT22;6359;51.450;7.346;2023-05-10T15:22:25;20.70;99.90
12588;DHT22;6359;51.450;7.346;2023-05-10T15:24:53;20.30;99.90
12588;DHT22;6359;51.450;7.346;2023-05-10T15:27:20;20.30;99.90
12588;DHT22;6359;51.450;7.346;2023-05-10T15:29:47;20.20;99.90
12588;DHT22;6359;51.450;7.346;2023-05-10T15:32:14;20.10;99.90
12588;DHT22;6359;51.450;7.346;2023-05-10T15:34:41;20.10;99.90
12588;DHT22;6359;51.450;7.346;2023-05-10T15:37:09;19.90;99.90
12588;DHT22;6359;51.450;7.346;2023-05-10T15:39:36;19.50;99.90
12588;DHT22;6359;51.450;7.346;2023-05-10T15:42:03;19.30;99.90
12588;DHT22;6359;51.450;7.346;2023-05-10T15:44:30;19.10;99.90
12588;DHT22;6359;51.450;7.346;2023-05-10T15:46:57;19.20;99.90
12588;DHT22;6359;51.450;7.346;2023-05-10T15:49:24;19.30;99.90
12588;DHT22;6359;51.450;7.346;2023-05-10T15:51:51;19.20;99.90
12588;DHT22;6359;51.450;7.346;2023-05-10T15:54:19;19.10;99.90
12588;DHT22;6359;51.450;7.346;2023-05-10T15:56:46;19.00;99.90
12588;DHT22;6359;51.450;7.346;2023-05-10T15:59:13;19.00;99.90
12588;DHT22;6359;51.450;7.346;2023-05-10T16:01:40;18.90;99.90